Time;durP1;ratioP1;P1;durP2;ratioP2;P2;SDS_P1;SDS_P2;PMS_P1;PMS_P2;Temp;Humidity;BMP_temperature;BMP_pressure;BME280_temperature;BME280_humidity;BME280_pressure;Samples;Min_cycle;Max_cycle;Signal;HPM_P1;HPM_P2
2023/06/19 00:01:42;;;;;;;1.40;1.30;;;;;;;21.00;66.35;100769.56;5038154;28;20088;-82
2023/06/19 00:04:07;;;;;;;1.40;1.30;;;;;;;20.98;66.65;100764.38;5036970;28;20049;-82
2023/06/19 00:06:32;;;;;;;1.48;1.38;;;;;;;20.97;66.96;100764.50;5036412;28;20400;-82
2023/06/19 00:08:58;;;;;;;1.27;1.17;;;;;;;20.95;67.11;100782.44;5037370;28;20037;-82
2023/06/19 00:11:23;;;;;;;1.15;1.15;;;;;;;20.94;67.67;100780.72;5020298;28;20060;-82
2023/06/19 00:13:49;;;;;;;1.45;1.35;;;;;;;20.93;67.87;100782.56;5037806;28;20316;-82
2023/06/19 00:16:15;;;;;;;1.45;1.35;;;;;;;20.90;68.72;100785.47;5038018;28;20068;-82
2023/06/19 00:18:40;;;;;;;1.55;1.10;;;;;;;20.90;68.43;100777.47;5037884;28;20044;-82
2023/06/19 00:21:07;;;;;;;4.18;0.90;;;;;;;20.87;68.61;100791.91;5037802;28;20037;-82
2023/06/19 00:23:34;;;;;;;1.30;1.20;;;;;;;20.86;69.16;100794.69;5038393;28;20202;-82
2023/06/19 00:26:03;;;;;;;2.10;1.33;;;;;;;20.84;68.91;100791.31;5037641;28;20244;-82
2023/06/19 00:28:28;;;;;;;1.60;1.50;;;;;;;20.82;69.55;100791.44;5037915;28;20043;-82
2023/06/19 00:30:54;;;;;;;1.58;1.48;;;;;;;20.81;69.21;100788.91;5036808;28;20104;-82
2023/06/19 00:33:19;;;;;;;3.17;1.60;;;;;;;20.79;69.21;100794.38;5038224;28;20041;-82
2023/06/19 00:35:44;;;;;;;1.80;1.40;;;;;;;20.80;69.21;100782.75;5019425;28;20348;-82
2023/06/19 00:38:10;;;;;;;2.75;1.50;;;;;;;20.79;70.08;100791.72;5037359;28;20264;-82
2023/06/19 00:40:35;;;;;;;1.58;1.48;;;;;;;20.79;69.59;100794.38;5037598;28;20025;-82
2023/06/19 00:43:01;;;;;;;1.70;1.60;;;;;;;20.79;69.91;100791.72;5037769;28;20033;-82
2023/06/19 00:45:27;;;;;;;1.83;1.73;;;;;;;20.77;69.39;100791.00;5019418;28;20033;-82
2023/06/19 00:47:54;;;;;;;3.38;1.80;;;;;;;20.77;69.92;100798.13;5037126;28;20043;-82
2023/06/19 00:50:21;;;;;;;5.05;2.42;;;;;;;20.76;70.57;100799.97;5019120;28;20044;-82
2023/06/19 00:52:47;;;;;;;5.15;2.15;;;;;;;20.74;70.78;100788.59;5037132;28;20217;-82
2023/06/19 00:55:14;;;;;;;2.25;2.05;;;;;;;20.71;71.08;100779.03;5036991;28;20214;-82
2023/06/19 00:57:40;;;;;;;2.60;1.90;;;;;;;20.70;70.83;100788.03;5018964;28;20352;-82
2023/06/19 01:00:07;;;;;;;2.00;1.70;;;;;;;20.68;71.07;100789.09;5036886;28;20071;-82
2023/06/19 01:02:32;;;;;;;2.35;1.83;;;;;;;20.70;71.31;100792.47;5037115;28;20061;-82
2023/06/19 01:04:58;;;;;;;2.70;2.50;;;;;;;20.67;72.22;100792.75;5036797;28;20029;-82
2023/06/19 01:07:52;;;;;;;2.40;2.20;;;;;;;20.67;72.53;100787.44;5015407;28;20076;-82
2023/06/19 01:10:41;;;;;;;3.03;2.67;;;;;;;20.66;72.28;100796.38;5017649;28;20037;-82
2023/06/19 01:13:13;;;;;;;2.53;2.33;;;;;;;20.64;72.68;100791.19;5017277;28;20396;-82
2023/06/19 01:15:41;;;;;;;2.38;2.17;;;;;;;20.63;72.53;100796.63;5017419;28;20061;-82
2023/06/19 01:18:07;;;;;;;2.95;2.75;;;;;;;20.62;73.14;100789.63;5015587;28;20080;-82
2023/06/19 01:20:33;;;;;;;2.58;2.38;;;;;;;20.60;73.67;100795.03;5015396;28;20025;-82
2023/06/19 01:23:06;;;;;;;3.58;3.38;;;;;;;20.59;74.30;100793.38;5017044;28;20037;-82
2023/06/19 01:25:31;;;;;;;3.15;2.95;;;;;;;20.57;74.46;100791.78;5016961;28;20041;-82
2023/06/19 01:27:57;;;;;;;4.38;3.97;;;;;;;20.55;75.37;100791.09;5017006;28;20038;-82
2023/06/19 01:30:22;;;;;;;3.63;3.33;;;;;;;20.53;74.83;100781.41;5017082;28;20346;-82
2023/06/19 01:33:00;;;;;;;3.70;3.40;;;;;;;20.52;75.03;100786.88;5017384;28;20109;-82
2023/06/19 01:35:29;;;;;;;3.93;3.50;;;;;;;20.53;75.60;100783.22;5036668;28;20060;-82
2023/06/19 01:37:55;;;;;;;3.15;2.95;;;;;;;20.52;75.33;100777.06;5035162;28;20022;-82
2023/06/19 01:40:24;;;;;;;3.80;3.47;;;;;;;20.52;75.70;100785.06;5035509;28;20029;-82
2023/06/19 01:42:51;;;;;;;4.20;3.70;;;;;;;20.52;75.88;100778.91;5036221;28;20041;-82
2023/06/19 01:45:17;;;;;;;4.63;3.97;;;;;;;20.51;75.97;100780.69;5036749;28;20151;-82
2023/06/19 01:47:42;;;;;;;4.43;3.90;;;;;;;20.51;76.17;100786.00;5034871;28;20069;-82
2023/06/19 01:50:10;;;;;;;3.72;3.42;;;;;;;20.51;76.12;100775.38;5035870;28;20040;-82
2023/06/19 01:52:37;;;;;;;4.13;3.83;;;;;;;20.50;76.56;100771.03;5036400;28;20339;-82
2023/06/19 01:55:03;;;;;;;4.53;4.13;;;;;;;20.50;76.84;100776.34;5034427;28;20026;-82
2023/06/19 01:57:28;;;;;;;2.95;2.55;;;;;;;20.49;76.63;100777.31;5034887;28;20256;-82
2023/06/19 01:59:53;;;;;;;3.28;3.08;;;;;;;20.49;76.45;100779.97;5036091;28;20113;-82
2023/06/19 02:02:19;;;;;;;4.60;4.20;;;;;;;20.51;76.61;100790.50;5036023;28;20396;-82
2023/06/19 02:04:44;;;;;;;5.18;4.78;;;;;;;20.50;77.31;100794.97;5016440;28;20034;-82
2023/06/19 02:07:09;;;;;;;4.20;3.80;;;;;;;20.49;77.45;100779.16;5019715;28;20045;-82
2023/06/19 02:09:37;;;;;;;4.88;4.50;;;;;;;20.48;77.75;100788.94;5035797;28;20099;-82
2023/06/19 02:12:03;;;;;;;4.85;4.13;;;;;;;20.50;77.85;100789.66;5018250;28;20026;-82
2023/06/19 02:14:28;;;;;;;5.72;5.22;;;;;;;20.50;77.92;100794.97;5035799;28;20086;-82
2023/06/19 02:16:53;;;;;;;7.18;5.78;;;;;;;20.50;78.10;100797.63;5035899;28;20037;-82
2023/06/19 02:19:19;;;;;;;5.20;4.82;;;;;;;20.50;78.02;100788.78;5036464;28;20365;-81
2023/06/19 02:21:44;;;;;;;5.00;4.60;;;;;;;20.49;77.45;100795.94;5018037;28;20337;-82
2023/06/19 02:24:09;;;;;;;10.45;6.80;;;;;;;20.48;77.75;100796.94;5035321;28;20037;-82
2023/06/19 02:26:35;;;;;;;12.25;7.93;;;;;;;20.49;77.91;100801.25;5035839;28;20047;-82
2023/06/19 02:29:00;;;;;;;10.13;9.23;;;;;;;20.47;78.68;100800.53;5035310;28;20039;-82
2023/06/19 02:31:25;;;;;;;14.02;9.23;;;;;;;20.46;78.86;100800.66;5035433;28;20029;-82
2023/06/19 02:33:51;;;;;;;13.25;10.68;;;;;;;20.47;79.15;100805.03;5046240;28;20358;-82
2023/06/19 02:36:19;;;;;;;11.95;9.40;;;;;;;20.47;79.04;100803.22;5055555;28;20335;-82
2023/06/19 02:38:50;;;;;;;17.38;12.40;;;;;;;20.46;79.31;100816.63;5055476;28;20106;-82
2023/06/19 02:41:15;;;;;;;19.00;13.73;;;;;;;20.47;79.73;100821.00;5055528;28;20108;-82
2023/06/19 02:43:42;;;;;;;15.15;12.52;;;;;;;20.46;79.86;100828.09;5037052;28;20409;-82
2023/06/19 02:46:08;;;;;;;11.23;9.80;;;;;;;20.45;79.85;100829.09;5036830;28;20348;-82
2023/06/19 02:48:34;;;;;;;15.10;11.68;;;;;;;20.46;79.81;100828.09;5055101;28;20114;-82
2023/06/19 02:51:00;;;;;;;10.65;9.63;;;;;;;20.45;79.56;100839.72;5054930;28;20037;-82
2023/06/19 02:53:25;;;;;;;8.20;7.40;;;;;;;20.46;79.31;100841.41;5055319;28;20044;-81
2023/06/19 02:55:50;;;;;;;10.18;9.18;;;;;;;20.47;79.15;100856.41;5036698;28;20358;-82
2023/06/19 02:58:16;;;;;;;8.57;7.72;;;;;;;20.47;79.51;100844.94;5055026;28;20216;-81
2023/06/19 03:00:41;;;;;;;10.07;9.02;;;;;;;20.45;79.78;100855.69;5036895;28;20036;-81
2023/06/19 03:03:07;;;;;;;10.02;9.13;;;;;;;20.44;79.76;100859.31;5054903;28;20096;-81
2023/06/19 03:05:32;;;;;;;8.57;7.88;;;;;;;20.44;79.92;100866.44;5041621;28;20279;-81
2023/06/19 03:07:57;;;;;;;10.40;9.32;;;;;;;20.42;80.23;100863.06;5034442;28;20064;-81
2023/06/19 03:10:23;;;;;;;13.63;10.88;;;;;;;20.41;80.41;100874.66;5034924;28;20030;-81
2023/06/19 03:12:48;;;;;;;11.75;10.20;;;;;;;20.40;80.74;100880.97;5034739;28;20037;-81
2023/06/19 03:15:14;;;;;;;14.57;12.50;;;;;;;20.39;80.73;100881.94;5035096;28;20100;-81
2023/06/19 03:17:39;;;;;;;12.68;11.27;;;;;;;20.37;81.17;100890.03;5034968;28;20036;-81
2023/06/19 03:20:05;;;;;;;10.50;9.50;;;;;;;20.35;80.99;100883.16;5037679;28;20025;-81
2023/06/19 03:22:31;;;;;;;13.02;11.73;;;;;;;20.32;80.86;100890.44;5038977;28;20336;-81
2023/06/19 03:24:57;;;;;;;14.38;12.88;;;;;;;20.32;81.11;100893.09;5038633;28;20100;-81
2023/06/19 03:27:22;;;;;;;13.88;11.43;;;;;;;20.30;81.21;100894.16;5039216;28;20068;-81
2023/06/19 03:29:48;;;;;;;12.32;11.07;;;;;;;20.29;81.18;100892.47;5019998;28;20053;-81
2023/06/19 03:32:13;;;;;;;11.60;9.55;;;;;;;20.28;80.79;100888.13;5038530;28;20025;-81
2023/06/19 03:34:38;;;;;;;10.63;9.52;;;;;;;20.27;80.73;100900.59;5038155;28;20180;-81
2023/06/19 03:37:04;;;;;;;10.45;7.70;;;;;;;20.26;80.70;100906.84;5058242;28;20024;-81
2023/06/19 03:39:30;;;;;;;8.18;7.28;;;;;;;20.26;80.67;100908.69;5058490;28;20043;-81
2023/06/19 03:41:55;;;;;;;10.43;7.70;;;;;;;20.21;80.89;100909.06;5040189;28;20024;-81
2023/06/19 03:44:20;;;;;;;8.98;6.82;;;;;;;20.20;80.92;100919.81;5058423;28;20051;-81
2023/06/19 03:46:47;;;;;;;6.38;5.78;;;;;;;20.20;80.55;100917.16;5040277;28;20054;-81
2023/06/19 03:49:12;;;;;;;5.78;5.18;;;;;;;20.19;80.47;100921.59;5058472;28;20025;-81
2023/06/19 03:51:38;;;;;;;5.05;4.65;;;;;;;20.19;80.26;100939.38;5058042;28;20044;-81
2023/06/19 03:54:04;;;;;;;5.43;4.93;;;;;;;20.18;80.28;100927.91;5058366;28;20067;-81
2023/06/19 03:56:29;;;;;;;4.13;3.83;;;;;;;20.17;80.08;100944.81;5058199;28;20505;-81
2023/06/19 03:58:54;;;;;;;4.95;4.45;;;;;;;20.17;79.70;100943.97;5039869;28;20032;-84
2023/06/19 04:01:20;;;;;;;4.88;3.95;;;;;;;20.13;79.81;100952.19;5058461;28;20040;-81
2023/06/19 04:03:45;;;;;;;3.40;3.10;;;;;;;20.14;79.51;100967.19;5047817;28;20041;-81
2023/06/19 04:06:10;;;;;;;5.40;3.80;;;;;;;20.16;78.83;100951.13;5038058;28;20064;-81
2023/06/19 04:08:36;;;;;;;4.00;3.80;;;;;;;20.12;78.82;100961.16;5020289;28;20041;-81
2023/06/19 04:11:01;;;;;;;4.40;4.00;;;;;;;20.10;78.55;100967.53;5037791;28;20032;-81
2023/06/19 04:13:27;;;;;;;4.68;4.38;;;;;;;20.07;78.58;100965.97;5038214;28;20039;-81
2023/06/19 04:15:52;;;;;;;3.90;3.60;;;;;;;20.06;78.58;100974.06;5037815;28;20207;-81
2023/06/19 04:18:18;;;;;;;4.70;4.32;;;;;;;20.04;78.61;100973.34;5038387;28;20056;-81
2023/06/19 04:20:43;;;;;;;3.30;3.10;;;;;;;20.03;78.27;100980.50;5020068;28;20036;-81
2023/06/19 04:23:09;;;;;;;4.07;3.78;;;;;;;20.01;78.14;100979.78;5037716;28;20044;-81
2023/06/19 04:25:34;;;;;;;3.72;3.42;;;;;;;20.02;78.19;100980.59;5037686;28;20336;-81
2023/06/19 04:28:03;;;;;;;4.90;4.50;;;;;;;19.99;78.34;100987.00;5037565;28;20048;-81
2023/06/19 04:30:28;;;;;;;4.53;4.22;;;;;;;19.99;78.54;100997.63;5036368;28;20033;-81
2023/06/19 04:32:54;;;;;;;4.85;4.45;;;;;;;19.96;78.54;100995.22;5022951;28;20366;-81
2023/06/19 04:35:19;;;;;;;5.50;5.00;;;;;;;19.95;78.36;100996.19;5057826;28;20045;-81
2023/06/19 04:37:44;;;;;;;9.63;5.47;;;;;;;19.92;78.89;101001.75;5057385;28;20232;-81
2023/06/19 04:40:11;;;;;;;5.30;4.80;;;;;;;19.89;78.64;101009.97;5057176;28;20331;-81
2023/06/19 04:42:38;;;;;;;8.02;5.75;;;;;;;19.86;78.53;101004.88;5057335;28;20036;-81
2023/06/19 04:45:07;;;;;;;10.77;5.10;;;;;;;19.85;78.77;101008.50;5057301;28;20362;-81
2023/06/19 04:47:32;;;;;;;5.95;4.65;;;;;;;19.87;78.48;101019.88;5057342;28;20099;-81
2023/06/19 04:49:58;;;;;;;5.85;5.28;;;;;;;19.84;78.22;101023.59;5057077;28;20048;-81
2023/06/19 04:52:23;;;;;;;5.38;4.85;;;;;;;19.83;78.29;101013.06;5057193;28;20244;-81
2023/06/19 04:54:49;;;;;;;4.78;4.40;;;;;;;19.80;78.31;101014.16;5056783;28;20040;-81
2023/06/19 04:57:46;;;;;;;5.18;4.70;;;;;;;19.79;78.22;101023.09;5045831;28;20120;-81
2023/06/19 05:00:14;;;;;;;6.03;5.30;;;;;;;19.79;78.21;101033.72;5028718;28;20041;-83
2023/06/19 05:02:43;;;;;;;7.32;5.38;;;;;;;19.79;77.99;101031.06;5038209;28;20057;-81
2023/06/19 05:05:09;;;;;;;9.20;5.63;;;;;;;19.77;78.17;101034.81;5057134;28;20029;-81
2023/06/19 05:07:34;;;;;;;7.20;5.80;;;;;;;19.76;78.36;101041.94;5057111;28;20060;-81
2023/06/19 05:09:59;;;;;;;6.20;5.70;;;;;;;19.74;78.18;101039.41;5056873;28;20048;-81
2023/06/19 05:12:25;;;;;;;5.65;4.78;;;;;;;19.72;77.89;101040.47;5041675;28;20037;-81
2023/06/19 05:14:50;;;;;;;10.48;7.10;;;;;;;19.72;78.02;101043.13;5036621;28;20037;-81
2023/06/19 05:17:16;;;;;;;6.68;5.70;;;;;;;19.72;78.15;101045.78;5037225;28;20103;-81
2023/06/19 05:19:41;;;;;;;5.65;5.18;;;;;;;19.71;78.14;101058.19;5035329;28;20045;-81
2023/06/19 05:22:07;;;;;;;8.68;6.22;;;;;;;19.71;78.08;101049.38;5013434;28;20225;-81
2023/06/19 05:24:32;;;;;;;11.32;8.60;;;;;;;19.71;77.81;101074.13;5029943;28;20033;-81
2023/06/19 05:26:58;;;;;;;12.95;8.68;;;;;;;19.69;77.85;101068.09;5027794;28;20155;-81
2023/06/19 05:29:23;;;;;;;12.13;7.72;;;;;;;19.67;77.98;101075.34;5035603;28;20380;-81
2023/06/19 05:31:49;;;;;;;9.10;6.35;;;;;;;19.65;77.78;101077.25;5027840;28;20032;-81
2023/06/19 05:34:14;;;;;;;19.60;8.95;;;;;;;19.65;78.06;101087.88;5032432;28;20036;-81
2023/06/19 05:36:39;;;;;;;8.45;6.50;;;;;;;19.62;77.74;101092.59;5035751;28;20044;-81
2023/06/19 05:39:05;;;;;;;8.18;6.90;;;;;;;19.59;77.64;101083.00;5030520;28;20039;-81
2023/06/19 05:41:30;;;;;;;7.07;6.05;;;;;;;19.56;77.70;101093.88;5028396;28;20095;-81
2023/06/19 05:43:56;;;;;;;6.88;6.03;;;;;;;19.56;77.59;101100.03;5040043;28;20083;-81
2023/06/19 05:46:21;;;;;;;9.45;6.05;;;;;;;19.56;77.65;101105.34;5051896;28;20029;-81
2023/06/19 05:48:47;;;;;;;9.48;6.47;;;;;;;19.57;77.22;101106.19;5018923;28;20382;-81
2023/06/19 05:51:13;;;;;;;6.95;6.18;;;;;;;19.56;77.20;101102.69;5030629;28;20033;-81
2023/06/19 05:53:39;;;;;;;13.73;10.02;;;;;;;19.56;76.86;101109.81;5035506;28;20029;-81
2023/06/19 05:56:05;;;;;;;8.30;7.50;;;;;;;19.53;76.77;101105.56;5033666;28;20059;-81
2023/06/19 05:58:31;;;;;;;6.88;6.38;;;;;;;19.52;76.96;101105.72;5052029;28;20285;-81
2023/06/19 06:00:57;;;;;;;7.80;7.07;;;;;;;19.50;76.87;101110.25;5036172;28;20033;-81
2023/06/19 06:03:27;;;;;;;13.48;8.70;;;;;;;19.50;76.76;101112.91;5035677;28;20336;-81
2023/06/19 06:05:53;;;;;;;10.85;8.38;;;;;;;19.50;76.58;101121.75;5026892;28;20046;-81
2023/06/19 06:08:18;;;;;;;12.32;10.30;;;;;;;19.45;76.63;101118.59;5026954;28;20059;-81
2023/06/19 06:10:43;;;;;;;12.60;7.47;;;;;;;19.42;76.50;101124.13;5035291;28;20037;-81
2023/06/19 06:13:09;;;;;;;8.90;8.02;;;;;;;19.40;76.77;101130.50;5033759;28;20017;-81
2023/06/19 06:15:34;;;;;;;8.80;7.80;;;;;;;19.41;76.66;101132.19;5035451;28;20021;-81
2023/06/19 06:18:00;;;;;;;7.85;7.13;;;;;;;19.41;76.49;101142.81;5028994;28;20348;-81
2023/06/19 06:20:26;;;;;;;7.00;6.40;;;;;;;19.41;76.36;101148.13;5026645;28;20032;-81
2023/06/19 06:22:52;;;;;;;6.70;5.65;;;;;;;19.40;75.99;101143.78;5025422;28;20036;-81
2023/06/19 06:25:17;;;;;;;6.82;5.30;;;;;;;19.39;76.15;101156.19;5029230;28;20346;-81
2023/06/19 06:27:44;;;;;;;6.55;6.03;;;;;;;19.38;76.10;101151.88;5025053;28;20233;-81
2023/06/19 06:30:11;;;;;;;7.10;6.40;;;;;;;19.38;75.77;101149.22;5025623;28;20340;-81
2023/06/19 06:32:36;;;;;;;6.72;4.97;;;;;;;19.38;75.73;101160.66;5025732;28;20065;-81
2023/06/19 06:35:02;;;;;;;7.10;4.72;;;;;;;19.38;75.68;101152.69;5010149;28;20030;-81
2023/06/19 06:37:27;;;;;;;7.15;6.18;;;;;;;19.36;75.76;101153.78;5028027;28;20035;-81
2023/06/19 06:39:53;;;;;;;5.55;5.15;;;;;;;19.36;75.67;101161.75;5034609;28;20025;-81
2023/06/19 06:42:18;;;;;;;9.55;6.03;;;;;;;19.35;75.66;101163.53;5035433;28;20372;-81
2023/06/19 06:44:44;;;;;;;5.22;4.78;;;;;;;19.36;75.72;101175.88;5035271;28;20102;-81
2023/06/19 06:47:10;;;;;;;11.07;7.20;;;;;;;19.35;75.69;101176.81;5027696;28;20072;-81
2023/06/19 06:49:36;;;;;;;7.57;5.43;;;;;;;19.33;75.64;101178.75;5006100;28;20268;-81
2023/06/19 06:52:03;;;;;;;8.43;6.45;;;;;;;19.32;75.58;101176.22;5024736;28;20340;-81
2023/06/19 06:54:29;;;;;;;6.47;5.88;;;;;;;19.31;75.78;101183.31;5023391;28;20037;-81
2023/06/19 06:56:58;;;;;;;7.78;6.45;;;;;;;19.31;75.84;101185.13;5020226;28;20061;-81
2023/06/19 06:59:24;;;;;;;6.60;5.97;;;;;;;19.31;75.78;101199.25;5022518;28;20049;-81
2023/06/19 07:01:49;;;;;;;19.58;8.93;;;;;;;19.30;75.74;101200.22;5000810;28;20041;-81
2023/06/19 07:04:14;;;;;;;7.20;6.43;;;;;;;19.29;75.68;101198.53;5043949;28;20059;-81
2023/06/19 07:06:40;;;;;;;6.75;5.75;;;;;;;19.29;75.77;101206.47;5036763;28;20060;-81
2023/06/19 07:09:05;;;;;;;5.82;5.32;;;;;;;19.29;75.88;101205.63;5036564;28;20037;-81
2023/06/19 07:11:31;;;;;;;7.10;6.40;;;;;;;19.30;75.88;101215.28;5037046;28;20067;-80
2023/06/19 07:13:56;;;;;;;5.43;4.97;;;;;;;19.30;75.86;101221.47;5028984;28;20046;-81
2023/06/19 07:16:21;;;;;;;5.68;5.00;;;;;;;19.31;75.68;101212.53;5038444;28;20318;-81
2023/06/19 07:18:47;;;;;;;6.93;5.95;;;;;;;19.33;75.72;101209.75;5054077;28;20063;-81
2023/06/19 07:21:14;;;;;;;5.93;5.35;;;;;;;19.36;75.74;101217.53;5054452;28;20398;-81
2023/06/19 07:23:41;;;;;;;5.50;5.10;;;;;;;19.38;75.88;101216.44;5054683;28;20051;-81
2023/06/19 07:26:06;;;;;;;14.13;8.50;;;;;;;19.40;76.08;101213.69;5027802;28;20060;-81
2023/06/19 07:28:32;;;;;;;9.20;6.32;;;;;;;19.42;75.57;101216.22;5028878;28;20064;-81
2023/06/19 07:30:57;;;;;;;7.43;6.68;;;;;;;19.43;75.77;101217.91;5014109;28;20033;-81
2023/06/19 07:33:22;;;;;;;7.30;6.65;;;;;;;19.45;75.66;101213.38;5032761;28;20367;-81
2023/06/19 07:35:48;;;;;;;8.32;7.53;;;;;;;19.46;75.60;101225.66;5031733;28;20037;-81
2023/06/19 07:38:13;;;;;;;6.07;5.43;;;;;;;19.46;75.75;101215.88;5035523;28;20033;-81
2023/06/19 07:40:39;;;;;;;6.95;5.65;;;;;;;19.47;75.75;101219.41;5030382;28;20412;-81
2023/06/19 07:43:05;;;;;;;9.38;8.45;;;;;;;19.49;75.70;101220.97;5028047;28;20033;-81
2023/06/19 07:45:30;;;;;;;6.35;5.82;;;;;;;19.49;75.84;101223.63;5013141;28;20268;-81
2023/06/19 07:47:56;;;;;;;6.35;5.75;;;;;;;19.50;75.83;101222.69;5026151;28;20127;-81
2023/06/19 07:50:22;;;;;;;6.90;6.35;;;;;;;19.53;75.93;101226.91;5013421;28;20109;-81
2023/06/19 07:52:48;;;;;;;6.32;5.55;;;;;;;19.53;75.97;101221.59;5015059;28;20099;-81
2023/06/19 07:55:13;;;;;;;6.18;5.57;;;;;;;19.54;75.86;101228.63;5027293;28;20332;-81
2023/06/19 07:57:39;;;;;;;6.38;5.88;;;;;;;19.54;75.63;101237.44;5010217;28;20348;-81
2023/06/19 08:00:10;;;;;;;7.47;6.25;;;;;;;19.55;75.41;101235.63;5024895;28;20029;-81
2023/06/19 08:02:36;;;;;;;7.75;5.28;;;;;;;19.55;75.26;101230.31;5016671;28;20424;-81
2023/06/19 08:05:01;;;;;;;7.72;5.40;;;;;;;19.55;75.38;101231.19;5022119;28;20040;-81
2023/06/19 08:07:27;;;;;;;5.63;5.15;;;;;;;19.55;75.35;101230.31;5037262;28;20411;-81
2023/06/19 08:09:52;;;;;;;7.18;6.30;;;;;;;19.56;75.05;101232.88;5035680;28;20029;-81
2023/06/19 08:12:17;;;;;;;7.07;6.38;;;;;;;19.58;75.40;101237.22;5031080;28;20032;-81
2023/06/19 08:14:43;;;;;;;11.07;6.18;;;;;;;19.58;75.26;101242.53;5041292;28;20344;-81
2023/06/19 08:17:08;;;;;;;9.23;5.93;;;;;;;19.58;74.94;101253.16;5034884;28;20209;-81
2023/06/19 08:19:33;;;;;;;7.00;4.90;;;;;;;19.58;74.99;101258.47;5037656;28;20033;-81
2023/06/19 08:21:59;;;;;;;6.40;5.07;;;;;;;19.58;74.73;101264.63;5036807;28;20126;-81
2023/06/19 08:24:24;;;;;;;21.88;7.50;;;;;;;19.58;74.72;101272.59;5029445;28;20037;-81
2023/06/19 08:26:50;;;;;;;6.45;5.45;;;;;;;19.58;74.51;101282.38;5035252;28;20347;-81
2023/06/19 08:29:17;;;;;;;8.93;5.85;;;;;;;19.56;74.35;101282.50;5044208;28;20029;-81
2023/06/19 08:31:43;;;;;;;9.30;5.63;;;;;;;19.55;74.58;101281.66;5037211;28;20100;-81
2023/06/19 08:34:09;;;;;;;6.47;5.85;;;;;;;19.56;74.60;101271.88;5042828;28;20064;-81
2023/06/19 08:36:35;;;;;;;6.63;5.20;;;;;;;19.57;74.87;101276.22;5044544;28;20041;-81
2023/06/19 08:39:01;;;;;;;8.20;6.00;;;;;;;19.59;74.76;101290.22;5038836;28;20025;-81
2023/06/19 08:41:26;;;;;;;11.57;6.78;;;;;;;19.60;74.82;101283.97;5036337;28;20037;-81
2023/06/19 08:43:52;;;;;;;8.95;7.10;;;;;;;19.61;74.70;101280.38;5022636;28;20581;-81
2023/06/19 08:46:18;;;;;;;7.53;6.28;;;;;;;19.63;74.90;101291.72;5042626;28;20334;-81
2023/06/19 08:48:44;;;;;;;14.30;7.35;;;;;;;19.65;74.74;101291.63;5046696;28;20037;-81
2023/06/19 08:51:11;;;;;;;7.68;6.13;;;;;;;19.68;74.68;101276.31;5036776;28;20037;-81
2023/06/19 08:53:45;;;;;;;6.57;5.97;;;;;;;19.73;74.72;101270.69;5032708;28;20045;-81
2023/06/19 08:56:10;;;;;;;8.80;5.82;;;;;;;19.76;74.60;101270.47;5033023;28;20336;-81
2023/06/19 08:58:37;;;;;;;8.13;6.00;;;;;;;19.80;74.48;101273.75;5037057;28;20036;-81
2023/06/19 09:01:02;;;;;;;7.13;6.03;;;;;;;19.83;74.81;101279.69;5034507;28;20056;-81
2023/06/19 09:03:28;;;;;;;13.93;7.40;;;;;;;19.85;74.61;101280.41;5023627;28;20324;-81
2023/06/19 09:05:53;;;;;;;9.23;7.38;;;;;;;19.86;74.82;101278.59;5017566;28;20029;-81
2023/06/19 09:08:20;;;;;;;7.85;7.05;;;;;;;19.87;74.86;101288.28;5014767;28;20271;-81
2023/06/19 09:11:02;;;;;;;7.10;6.20;;;;;;;19.87;74.76;101298.91;5036469;28;20041;-81
2023/06/19 09:13:29;;;;;;;8.40;5.97;;;;;;;19.87;74.58;101293.59;5036730;28;20371;-81
2023/06/19 09:16:05;;;;;;;8.25;5.60;;;;;;;19.90;74.77;101294.22;5031981;28;20025;-81
2023/06/19 09:18:41;;;;;;;7.68;6.88;;;;;;;19.91;74.50;101303.88;5041198;28;20261;-81
2023/06/19 09:21:06;;;;;;;6.57;5.85;;;;;;;19.94;74.55;101302.81;5033758;28;20029;-81
2023/06/19 09:23:34;;;;;;;10.25;5.55;;;;;;;19.96;74.22;101314.19;5027970;28;20033;-81
2023/06/19 09:26:00;;;;;;;7.60;5.70;;;;;;;19.97;74.29;101323.00;5034728;28;20025;-81
2023/06/19 09:28:27;;;;;;;7.15;6.18;;;;;;;19.94;73.61;101322.28;5019524;28;20039;-81
2023/06/19 09:31:01;;;;;;;8.40;5.75;;;;;;;19.94;73.27;101316.13;5034673;28;20041;-81
2023/06/19 09:33:31;;;;;;;5.88;5.05;;;;;;;19.93;73.13;101331.19;5037025;28;20037;-81
2023/06/19 09:35:58;;;;;;;7.97;6.28;;;;;;;19.94;72.74;101324.09;5018324;28;20036;-81
2023/06/19 09:38:26;;;;;;;7.03;6.32;;;;;;;19.94;73.23;101326.75;5036353;28;20044;-81
2023/06/19 09:40:52;;;;;;;8.05;5.55;;;;;;;19.96;73.43;101335.47;5034423;28;20037;-81
2023/06/19 09:43:42;;;;;;;5.70;5.18;;;;;;;19.98;73.25;101327.38;5034762;28;20120;-81
2023/06/19 09:46:08;;;;;;;13.60;10.07;;;;;;;20.00;73.58;101336.09;5034793;28;20382;-81
2023/06/19 09:48:35;;;;;;;14.73;10.18;;;;;;;20.03;74.56;101342.03;5035127;28;20075;-81
2023/06/19 09:51:17;;;;;;;9.73;8.73;;;;;;;20.07;74.28;101340.84;5034679;28;20025;-81
2023/06/19 09:53:48;;;;;;;13.20;9.98;;;;;;;20.08;74.58;101337.22;5034244;28;20045;-81
2023/06/19 09:56:15;;;;;;;13.00;9.88;;;;;;;20.10;74.41;101350.38;5016923;28;20049;-81
2023/06/19 09:58:43;;;;;;;9.60;8.40;;;;;;;20.12;74.23;101348.50;5017162;28;20029;-81
2023/06/19 10:01:08;;;;;;;8.52;7.68;;;;;;;20.14;74.09;101346.56;5035568;28;20388;-81
2023/06/19 10:03:35;;;;;;;12.20;9.43;;;;;;;20.13;74.04;101347.50;5036184;28;20207;-80
2023/06/19 10:06:02;;;;;;;17.75;10.75;;;;;;;20.14;74.26;101342.09;5035923;28;20044;-81
2023/06/19 10:08:32;;;;;;;16.40;12.77;;;;;;;20.14;74.86;101347.41;5017747;28;20358;-81
2023/06/19 10:10:57;;;;;;;15.32;10.90;;;;;;;20.16;74.69;101349.13;5017926;28;20029;-81
2023/06/19 10:13:34;;;;;;;13.73;10.50;;;;;;;20.16;74.72;101341.13;5035647;28;20045;-81
2023/06/19 10:16:00;;;;;;;13.75;10.23;;;;;;;20.16;74.77;101343.81;5035577;28;20390;-81
2023/06/19 10:18:26;;;;;;;9.70;8.70;;;;;;;20.18;74.28;101355.16;5017785;28;20021;-81
2023/06/19 10:20:53;;;;;;;9.68;8.15;;;;;;;20.19;74.32;101354.19;5035249;28;20037;-81
2023/06/19 10:23:21;;;;;;;9.77;8.65;;;;;;;20.19;74.00;101347.06;5035556;28;20316;-81
2023/06/19 10:25:54;;;;;;;11.18;8.43;;;;;;;20.20;73.89;101342.59;5035032;28;20048;-81
2023/06/19 10:28:28;;;;;;;10.13;7.57;;;;;;;20.21;73.82;101357.59;5035501;28;20035;-81
2023/06/19 10:31:02;;;;;;;8.85;8.02;;;;;;;20.21;73.51;101355.78;5035032;28;20076;-81
2023/06/19 10:33:40;;;;;;;7.45;6.85;;;;;;;20.22;73.67;101343.34;5036475;28;20272;-81
2023/06/19 10:36:16;;;;;;;11.50;10.38;;;;;;;20.21;73.54;101349.59;5034998;28;20041;-81
2023/06/19 10:38:46;;;;;;;11.23;10.10;;;;;;;20.21;73.48;101349.59;5035572;28;20246;-81
2023/06/19 10:41:25;;;;;;;9.60;8.48;;;;;;;20.21;73.60;101353.13;5035775;28;20288;-81
2023/06/19 10:43:58;;;;;;;10.43;9.43;;;;;;;20.23;73.49;101355.66;5034846;28;20434;-81
2023/06/19 10:46:24;;;;;;;9.23;8.32;;;;;;;20.24;73.35;101344.91;5017527;28;20033;-81
2023/06/19 10:48:51;;;;;;;9.73;8.70;;;;;;;20.27;73.03;101351.84;5016939;28;20037;-81
2023/06/19 10:51:19;;;;;;;10.10;8.98;;;;;;;20.30;72.95;101344.47;5035446;28;20037;-81
2023/06/19 10:53:45;;;;;;;;;;;;;;;20.33;73.07;101354.03;5035502;28;20037;-81
2023/06/19 10:56:10;;;;;;;15.17;10.17;;;;;;;20.36;72.90;101350.31;5034874;28;19979;-81
2023/06/19 10:58:35;;;;;;;9.38;8.48;;;;;;;20.39;72.78;101348.28;5029300;28;20136;-81
2023/06/19 11:01:01;;;;;;;8.60;7.80;;;;;;;20.42;72.76;101345.38;5035259;28;20029;-81
2023/06/19 11:03:26;;;;;;;9.65;8.50;;;;;;;20.44;72.26;101339.94;5016988;28;20029;-81
2023/06/19 11:05:52;;;;;;;8.75;7.88;;;;;;;20.46;72.32;101333.53;5035174;28;20228;-81
2023/06/19 11:08:19;;;;;;;8.23;7.53;;;;;;;20.48;72.18;101330.75;5035411;28;20040;-81
2023/06/19 11:10:44;;;;;;;7.95;7.15;;;;;;;20.49;72.20;101335.13;5035016;28;20083;-81
2023/06/19 11:13:18;;;;;;;10.57;7.68;;;;;;;20.51;72.00;101335.84;5034793;28;20041;-81
2023/06/19 11:15:44;;;;;;;7.07;6.45;;;;;;;20.50;71.89;101334.13;5016944;28;20049;-81
2023/06/19 11:18:10;;;;;;;5.93;5.32;;;;;;;20.52;71.73;101334.91;5025764;28;20080;-81
2023/06/19 11:20:50;;;;;;;8.93;6.60;;;;;;;20.57;72.13;101339.88;5023814;28;20348;-81